sensor_id;sensor_type;location;lat;lon;timestamp;P1;durP1;ratioP1;P2;durP2;ratioP2
72517;SDS011;60540;51.178;6.738;2022-11-30T00:01:55;37.97;;;13.30;;
72517;SDS011;60540;51.178;6.738;2022-11-30T00:04:21;38.72;;;14.00;;
72517;SDS011;60540;51.178;6.738;2022-11-30T00:06:46;44.17;;;13.77;;
72517;SDS011;60540;51.178;6.738;2022-11-30T00:09:12;40.88;;;14.23;;
72517;SDS011;60540;51.178;6.738;2022-11-30T00:11:38;43.67;;;14.77;;
72517;SDS011;60540;51.178;6.738;2022-11-30T00:14:03;38.90;;;14.20;;
72517;SDS011;60540;51.178;6.738;2022-11-30T00:16:29;42.78;;;14.40;;
72517;SDS011;60540;51.178;6.738;2022-11-30T00:18:54;41.80;;;13.95;;
72517;SDS011;60540;51.178;6.738;2022-11-30T00:21:20;44.40;;;14.85;;
72517;SDS011;60540;51.178;6.738;2022-11-30T00:23:46;40.85;;;14.90;;
72517;SDS011;60540;51.178;6.738;2022-11-30T00:26:14;42.60;;;15.50;;
72517;SDS011;60540;51.178;6.738;2022-11-30T00:28:40;40.20;;;16.02;;
72517;SDS011;60540;51.178;6.738;2022-11-30T00:31:10;38.25;;;13.52;;
72517;SDS011;60540;51.178;6.738;2022-11-30T00:33:37;40.92;;;14.38;;
72517;SDS011;60540;51.178;6.738;2022-11-30T00:36:04;43.75;;;15.70;;
72517;SDS011;60540;51.178;6.738;2022-11-30T00:38:40;44.33;;;15.80;;
72517;SDS011;60540;51.178;6.738;2022-11-30T00:41:06;39.97;;;15.45;;
72517;SDS011;60540;51.178;6.738;2022-11-30T00:43:32;39.20;;;14.13;;
72517;SDS011;60540;51.178;6.738;2022-11-30T00:45:57;42.47;;;13.90;;
72517;SDS011;60540;51.178;6.738;2022-11-30T00:48:23;39.30;;;13.20;;
72517;SDS011;60540;51.178;6.738;2022-11-30T00:50:49;39.42;;;13.88;;
72517;SDS011;60540;51.178;6.738;2022-11-30T00:53:15;43.25;;;15.02;;
72517;SDS011;60540;51.178;6.738;2022-11-30T00:55:42;37.17;;;13.25;;
72517;SDS011;60540;51.178;6.738;2022-11-30T00:58:07;37.20;;;14.13;;
72517;SDS011;60540;51.178;6.738;2022-11-30T01:00:34;36.22;;;13.85;;
72517;SDS011;60540;51.178;6.738;2022-11-30T01:02:59;35.83;;;14.48;;
72517;SDS011;60540;51.178;6.738;2022-11-30T01:05:25;38.08;;;14.25;;
72517;SDS011;60540;51.178;6.738;2022-11-30T01:07:51;39.55;;;14.20;;
72517;SDS011;60540;51.178;6.738;2022-11-30T01:10:16;38.80;;;13.20;;
72517;SDS011;60540;51.178;6.738;2022-11-30T01:12:42;35.58;;;14.38;;
72517;SDS011;60540;51.178;6.738;2022-11-30T01:15:08;39.90;;;14.02;;
72517;SDS011;60540;51.178;6.738;2022-11-30T01:17:34;42.30;;;14.15;;
72517;SDS011;60540;51.178;6.738;2022-11-30T01:19:59;45.85;;;14.88;;
72517;SDS011;60540;51.178;6.738;2022-11-30T01:22:25;40.85;;;15.07;;
72517;SDS011;60540;51.178;6.738;2022-11-30T01:24:51;40.22;;;13.95;;
72517;SDS011;60540;51.178;6.738;2022-11-30T01:27:16;39.17;;;14.18;;
72517;SDS011;60540;51.178;6.738;2022-11-30T01:29:42;39.53;;;14.10;;
72517;SDS011;60540;51.178;6.738;2022-11-30T01:32:07;41.50;;;15.00;;
72517;SDS011;60540;51.178;6.738;2022-11-30T01:34:33;40.90;;;14.85;;
72517;SDS011;60540;51.178;6.738;2022-11-30T01:36:59;40.47;;;15.50;;
72517;SDS011;60540;51.178;6.738;2022-11-30T01:39:24;38.13;;;14.77;;
72517;SDS011;60540;51.178;6.738;2022-11-30T01:41:51;40.38;;;13.85;;
72517;SDS011;60540;51.178;6.738;2022-11-30T01:47:00;39.47;;;15.20;;
72517;SDS011;60540;51.178;6.738;2022-11-30T01:54:26;51.97;;;16.55;;
72517;SDS011;60540;51.178;6.738;2022-11-30T01:56:55;47.33;;;15.90;;
72517;SDS011;60540;51.178;6.738;2022-11-30T01:59:22;47.20;;;16.40;;
72517;SDS011;60540;51.178;6.738;2022-11-30T02:04:19;44.28;;;13.93;;
72517;SDS011;60540;51.178;6.738;2022-11-30T02:06:46;49.60;;;17.45;;
72517;SDS011;60540;51.178;6.738;2022-11-30T02:09:12;42.42;;;14.75;;
72517;SDS011;60540;51.178;6.738;2022-11-30T02:11:39;51.42;;;17.15;;
72517;SDS011;60540;51.178;6.738;2022-11-30T02:22:05;48.90;;;17.00;;
72517;SDS011;60540;51.178;6.738;2022-11-30T02:24:41;45.92;;;17.85;;
72517;SDS011;60540;51.178;6.738;2022-11-30T02:27:21;48.25;;;17.58;;
72517;SDS011;60540;51.178;6.738;2022-11-30T02:29:55;49.88;;;16.58;;
72517;SDS011;60540;51.178;6.738;2022-11-30T02:32:30;48.70;;;15.25;;
72517;SDS011;60540;51.178;6.738;2022-11-30T02:34:58;45.28;;;16.08;;
72517;SDS011;60540;51.178;6.738;2022-11-30T02:37:26;47.50;;;15.63;;
72517;SDS011;60540;51.178;6.738;2022-11-30T02:39:52;52.78;;;16.67;;
72517;SDS011;60540;51.178;6.738;2022-11-30T02:42:17;45.38;;;16.65;;
72517;SDS011;60540;51.178;6.738;2022-11-30T02:44:47;47.40;;;17.27;;
72517;SDS011;60540;51.178;6.738;2022-11-30T02:50:00;55.67;;;17.95;;
72517;SDS011;60540;51.178;6.738;2022-11-30T02:52:34;50.05;;;18.42;;
72517;SDS011;60540;51.178;6.738;2022-11-30T02:55:04;42.38;;;15.50;;
72517;SDS011;60540;51.178;6.738;2022-11-30T02:57:31;50.50;;;16.35;;
72517;SDS011;60540;51.178;6.738;2022-11-30T02:59:57;47.60;;;17.30;;
72517;SDS011;60540;51.178;6.738;2022-11-30T03:02:24;47.65;;;16.58;;
72517;SDS011;60540;51.178;6.738;2022-11-30T03:04:50;45.85;;;15.93;;
72517;SDS011;60540;51.178;6.738;2022-11-30T03:07:15;43.53;;;15.88;;
72517;SDS011;60540;51.178;6.738;2022-11-30T03:09:41;52.83;;;16.90;;
72517;SDS011;60540;51.178;6.738;2022-11-30T03:12:07;43.88;;;16.52;;
72517;SDS011;60540;51.178;6.738;2022-11-30T03:14:32;48.60;;;16.35;;
72517;SDS011;60540;51.178;6.738;2022-11-30T03:16:58;51.28;;;17.33;;
72517;SDS011;60540;51.178;6.738;2022-11-30T03:19:24;49.15;;;17.15;;
72517;SDS011;60540;51.178;6.738;2022-11-30T03:21:49;43.63;;;15.95;;
72517;SDS011;60540;51.178;6.738;2022-11-30T03:24:15;38.63;;;15.50;;
72517;SDS011;60540;51.178;6.738;2022-11-30T03:26:40;39.92;;;15.73;;
72517;SDS011;60540;51.178;6.738;2022-11-30T03:29:06;39.65;;;14.43;;
72517;SDS011;60540;51.178;6.738;2022-11-30T03:31:31;34.25;;;13.80;;
72517;SDS011;60540;51.178;6.738;2022-11-30T03:33:57;36.22;;;14.95;;
72517;SDS011;60540;51.178;6.738;2022-11-30T03:36:23;35.95;;;13.02;;
72517;SDS011;60540;51.178;6.738;2022-11-30T03:38:49;38.17;;;14.27;;
72517;SDS011;60540;51.178;6.738;2022-11-30T03:41:15;32.50;;;12.85;;
72517;SDS011;60540;51.178;6.738;2022-11-30T03:43:45;31.27;;;13.27;;
72517;SDS011;60540;51.178;6.738;2022-11-30T03:46:11;36.10;;;14.02;;
72517;SDS011;60540;51.178;6.738;2022-11-30T03:48:37;36.75;;;13.70;;
72517;SDS011;60540;51.178;6.738;2022-11-30T03:51:03;40.88;;;15.73;;
72517;SDS011;60540;51.178;6.738;2022-11-30T03:53:30;42.30;;;17.33;;
72517;SDS011;60540;51.178;6.738;2022-11-30T03:55:56;37.95;;;15.43;;
72517;SDS011;60540;51.178;6.738;2022-11-30T03:58:24;42.40;;;16.17;;
72517;SDS011;60540;51.178;6.738;2022-11-30T04:00:58;40.60;;;16.58;;
72517;SDS011;60540;51.178;6.738;2022-11-30T04:03:28;37.58;;;15.32;;
72517;SDS011;60540;51.178;6.738;2022-11-30T04:05:54;43.22;;;17.35;;
72517;SDS011;60540;51.178;6.738;2022-11-30T04:08:21;32.15;;;14.30;;
72517;SDS011;60540;51.178;6.738;2022-11-30T04:10:47;34.30;;;14.30;;
72517;SDS011;60540;51.178;6.738;2022-11-30T04:13:15;31.38;;;13.65;;
72517;SDS011;60540;51.178;6.738;2022-11-30T04:15:41;32.17;;;13.07;;
72517;SDS011;60540;51.178;6.738;2022-11-30T04:18:06;34.33;;;13.13;;
72517;SDS011;60540;51.178;6.738;2022-11-30T04:20:32;31.40;;;13.10;;
72517;SDS011;60540;51.178;6.738;2022-11-30T04:22:57;28.58;;;11.45;;
72517;SDS011;60540;51.178;6.738;2022-11-30T04:25:23;33.90;;;13.15;;
72517;SDS011;60540;51.178;6.738;2022-11-30T04:27:49;29.15;;;13.18;;
72517;SDS011;60540;51.178;6.738;2022-11-30T04:30:15;30.38;;;12.80;;
72517;SDS011;60540;51.178;6.738;2022-11-30T04:32:41;35.70;;;15.40;;
72517;SDS011;60540;51.178;6.738;2022-11-30T04:35:07;33.80;;;14.25;;
72517;SDS011;60540;51.178;6.738;2022-11-30T04:37:33;36.40;;;15.07;;
72517;SDS011;60540;51.178;6.738;2022-11-30T04:39:59;34.58;;;15.13;;
72517;SDS011;60540;51.178;6.738;2022-11-30T04:42:24;35.10;;;14.70;;
72517;SDS011;60540;51.178;6.738;2022-11-30T04:44:50;40.95;;;15.90;;
72517;SDS011;60540;51.178;6.738;2022-11-30T04:47:16;36.28;;;14.90;;
72517;SDS011;60540;51.178;6.738;2022-11-30T04:49:41;38.63;;;15.75;;
72517;SDS011;60540;51.178;6.738;2022-11-30T04:52:07;40.47;;;15.57;;
72517;SDS011;60540;51.178;6.738;2022-11-30T04:54:33;38.75;;;16.38;;
72517;SDS011;60540;51.178;6.738;2022-11-30T04:56:58;37.67;;;15.43;;
72517;SDS011;60540;51.178;6.738;2022-11-30T04:59:24;35.72;;;15.35;;
72517;SDS011;60540;51.178;6.738;2022-11-30T05:01:49;31.15;;;14.40;;
72517;SDS011;60540;51.178;6.738;2022-11-30T05:04:15;30.70;;;13.07;;
72517;SDS011;60540;51.178;6.738;2022-11-30T05:06:41;25.60;;;12.63;;
72517;SDS011;60540;51.178;6.738;2022-11-30T05:09:07;27.80;;;12.63;;
72517;SDS011;60540;51.178;6.738;2022-11-30T05:11:33;25.83;;;11.43;;
72517;SDS011;60540;51.178;6.738;2022-11-30T05:13:58;27.83;;;13.88;;
72517;SDS011;60540;51.178;6.738;2022-11-30T05:16:24;21.83;;;10.88;;
72517;SDS011;60540;51.178;6.738;2022-11-30T05:18:50;24.92;;;11.07;;
72517;SDS011;60540;51.178;6.738;2022-11-30T05:21:16;26.80;;;12.65;;
72517;SDS011;60540;51.178;6.738;2022-11-30T05:23:42;28.25;;;12.73;;
72517;SDS011;60540;51.178;6.738;2022-11-30T05:26:07;24.38;;;11.60;;
72517;SDS011;60540;51.178;6.738;2022-11-30T05:28:33;22.88;;;10.50;;
72517;SDS011;60540;51.178;6.738;2022-11-30T05:31:04;28.85;;;12.27;;
72517;SDS011;60540;51.178;6.738;2022-11-30T05:33:30;27.10;;;10.43;;
72517;SDS011;60540;51.178;6.738;2022-11-30T05:35:56;22.08;;;10.82;;
72517;SDS011;60540;51.178;6.738;2022-11-30T05:38:22;23.80;;;11.00;;
72517;SDS011;60540;51.178;6.738;2022-11-30T05:40:47;22.55;;;10.73;;
72517;SDS011;60540;51.178;6.738;2022-11-30T05:43:13;23.85;;;11.13;;
72517;SDS011;60540;51.178;6.738;2022-11-30T05:45:39;22.88;;;9.88;;
72517;SDS011;60540;51.178;6.738;2022-11-30T05:48:04;22.10;;;10.18;;
72517;SDS011;60540;51.178;6.738;2022-11-30T05:50:30;24.10;;;9.95;;
72517;SDS011;60540;51.178;6.738;2022-11-30T05:52:56;20.38;;;9.68;;
72517;SDS011;60540;51.178;6.738;2022-11-30T05:55:22;26.80;;;11.50;;
72517;SDS011;60540;51.178;6.738;2022-11-30T05:57:48;21.98;;;10.93;;
72517;SDS011;60540;51.178;6.738;2022-11-30T06:00:14;21.95;;;11.00;;
72517;SDS011;60540;51.178;6.738;2022-11-30T06:02:40;22.65;;;10.60;;
72517;SDS011;60540;51.178;6.738;2022-11-30T06:05:06;20.70;;;9.75;;
72517;SDS011;60540;51.178;6.738;2022-11-30T06:07:32;26.52;;;10.98;;
72517;SDS011;60540;51.178;6.738;2022-11-30T06:09:58;21.83;;;10.55;;
72517;SDS011;60540;51.178;6.738;2022-11-30T06:12:24;18.30;;;8.52;;
72517;SDS011;60540;51.178;6.738;2022-11-30T06:17:16;21.50;;;9.95;;
72517;SDS011;60540;51.178;6.738;2022-11-30T06:19:42;21.33;;;9.45;;
72517;SDS011;60540;51.178;6.738;2022-11-30T06:22:07;18.38;;;8.95;;
72517;SDS011;60540;51.178;6.738;2022-11-30T06:24:33;22.02;;;9.98;;
72517;SDS011;60540;51.178;6.738;2022-11-30T06:26:58;21.35;;;10.32;;
72517;SDS011;60540;51.178;6.738;2022-11-30T06:29:24;21.55;;;10.35;;
72517;SDS011;60540;51.178;6.738;2022-11-30T06:31:49;20.52;;;8.73;;
72517;SDS011;60540;51.178;6.738;2022-11-30T06:34:15;21.75;;;9.88;;
72517;SDS011;60540;51.178;6.738;2022-11-30T06:36:41;21.17;;;9.23;;
72517;SDS011;60540;51.178;6.738;2022-11-30T06:39:06;23.70;;;9.95;;
72517;SDS011;60540;51.178;6.738;2022-11-30T06:41:33;22.70;;;10.32;;
72517;SDS011;60540;51.178;6.738;2022-11-30T06:43:59;23.10;;;10.77;;
72517;SDS011;60540;51.178;6.738;2022-11-30T06:46:24;19.55;;;9.45;;
72517;SDS011;60540;51.178;6.738;2022-11-30T06:48:51;23.80;;;10.38;;
72517;SDS011;60540;51.178;6.738;2022-11-30T06:51:17;21.00;;;10.27;;
72517;SDS011;60540;51.178;6.738;2022-11-30T06:53:43;23.15;;;10.18;;
72517;SDS011;60540;51.178;6.738;2022-11-30T06:56:09;23.25;;;10.77;;
72517;SDS011;60540;51.178;6.738;2022-11-30T06:58:36;24.40;;;10.60;;
72517;SDS011;60540;51.178;6.738;2022-11-30T07:01:06;22.17;;;11.05;;
72517;SDS011;60540;51.178;6.738;2022-11-30T07:03:34;25.52;;;11.40;;
72517;SDS011;60540;51.178;6.738;2022-11-30T07:05:59;26.35;;;11.45;;
72517;SDS011;60540;51.178;6.738;2022-11-30T07:08:25;23.30;;;10.60;;
72517;SDS011;60540;51.178;6.738;2022-11-30T07:10:51;25.02;;;11.32;;
72517;SDS011;60540;51.178;6.738;2022-11-30T07:13:17;24.67;;;10.70;;
72517;SDS011;60540;51.178;6.738;2022-11-30T07:15:43;24.90;;;11.07;;
72517;SDS011;60540;51.178;6.738;2022-11-30T07:18:09;22.73;;;11.77;;
72517;SDS011;60540;51.178;6.738;2022-11-30T07:20:35;27.77;;;11.68;;
72517;SDS011;60540;51.178;6.738;2022-11-30T07:23:01;23.75;;;10.65;;
72517;SDS011;60540;51.178;6.738;2022-11-30T07:25:47;24.90;;;11.27;;
72517;SDS011;60540;51.178;6.738;2022-11-30T07:28:44;24.63;;;11.45;;
72517;SDS011;60540;51.178;6.738;2022-11-30T07:31:36;24.05;;;11.32;;
72517;SDS011;60540;51.178;6.738;2022-11-30T07:34:05;25.23;;;11.70;;
72517;SDS011;60540;51.178;6.738;2022-11-30T07:36:31;26.20;;;12.25;;
72517;SDS011;60540;51.178;6.738;2022-11-30T07:38:58;27.00;;;12.38;;
72517;SDS011;60540;51.178;6.738;2022-11-30T07:41:23;25.88;;;11.70;;
72517;SDS011;60540;51.178;6.738;2022-11-30T07:43:49;26.88;;;11.40;;
72517;SDS011;60540;51.178;6.738;2022-11-30T07:46:15;27.83;;;12.30;;
72517;SDS011;60540;51.178;6.738;2022-11-30T07:48:41;23.10;;;11.65;;
72517;SDS011;60540;51.178;6.738;2022-11-30T07:51:09;23.95;;;12.20;;
72517;SDS011;60540;51.178;6.738;2022-11-30T07:53:37;24.50;;;12.35;;
72517;SDS011;60540;51.178;6.738;2022-11-30T07:56:03;25.33;;;11.80;;
72517;SDS011;60540;51.178;6.738;2022-11-30T07:58:30;28.95;;;12.20;;
72517;SDS011;60540;51.178;6.738;2022-11-30T08:00:59;28.00;;;11.95;;
72517;SDS011;60540;51.178;6.738;2022-11-30T08:03:32;28.65;;;12.23;;
72517;SDS011;60540;51.178;6.738;2022-11-30T08:05:59;30.85;;;14.85;;
72517;SDS011;60540;51.178;6.738;2022-11-30T08:08:29;27.30;;;12.32;;
72517;SDS011;60540;51.178;6.738;2022-11-30T08:10:59;25.85;;;12.93;;
72517;SDS011;60540;51.178;6.738;2022-11-30T08:13:25;28.33;;;14.27;;
72517;SDS011;60540;51.178;6.738;2022-11-30T08:15:51;27.50;;;12.70;;
72517;SDS011;60540;51.178;6.738;2022-11-30T08:18:17;26.83;;;12.38;;
72517;SDS011;60540;51.178;6.738;2022-11-30T08:20:43;26.02;;;13.23;;
72517;SDS011;60540;51.178;6.738;2022-11-30T08:23:10;30.83;;;13.23;;
72517;SDS011;60540;51.178;6.738;2022-11-30T08:25:36;26.73;;;12.95;;
72517;SDS011;60540;51.178;6.738;2022-11-30T08:28:02;27.30;;;11.68;;
72517;SDS011;60540;51.178;6.738;2022-11-30T08:30:28;26.70;;;12.40;;
72517;SDS011;60540;51.178;6.738;2022-11-30T08:32:55;27.75;;;12.93;;
72517;SDS011;60540;51.178;6.738;2022-11-30T08:35:21;29.20;;;12.98;;
72517;SDS011;60540;51.178;6.738;2022-11-30T08:37:47;32.25;;;13.50;;
72517;SDS011;60540;51.178;6.738;2022-11-30T08:40:12;30.50;;;12.77;;
72517;SDS011;60540;51.178;6.738;2022-11-30T08:42:38;29.13;;;12.98;;
72517;SDS011;60540;51.178;6.738;2022-11-30T08:45:04;29.45;;;14.02;;
72517;SDS011;60540;51.178;6.738;2022-11-30T08:47:30;23.48;;;11.23;;
72517;SDS011;60540;51.178;6.738;2022-11-30T08:49:56;27.25;;;12.65;;
72517;SDS011;60540;51.178;6.738;2022-11-30T08:52:22;29.63;;;13.55;;
72517;SDS011;60540;51.178;6.738;2022-11-30T08:54:48;30.08;;;14.05;;
72517;SDS011;60540;51.178;6.738;2022-11-30T08:57:15;31.10;;;13.40;;
72517;SDS011;60540;51.178;6.738;2022-11-30T08:59:42;28.38;;;13.00;;
72517;SDS011;60540;51.178;6.738;2022-11-30T09:02:09;24.33;;;11.82;;
72517;SDS011;60540;51.178;6.738;2022-11-30T09:04:35;30.27;;;13.23;;
72517;SDS011;60540;51.178;6.738;2022-11-30T09:07:01;31.27;;;12.98;;
72517;SDS011;60540;51.178;6.738;2022-11-30T09:09:27;22.67;;;12.00;;
72517;SDS011;60540;51.178;6.738;2022-11-30T09:11:53;28.60;;;12.48;;
72517;SDS011;60540;51.178;6.738;2022-11-30T09:14:19;27.70;;;12.80;;
72517;SDS011;60540;51.178;6.738;2022-11-30T09:16:44;31.90;;;14.30;;
72517;SDS011;60540;51.178;6.738;2022-11-30T09:19:10;29.13;;;12.75;;
72517;SDS011;60540;51.178;6.738;2022-11-30T09:21:36;32.63;;;13.55;;
72517;SDS011;60540;51.178;6.738;2022-11-30T09:24:01;32.30;;;14.65;;
72517;SDS011;60540;51.178;6.738;2022-11-30T09:26:27;31.98;;;13.23;;
72517;SDS011;60540;51.178;6.738;2022-11-30T09:28:53;29.25;;;13.32;;
72517;SDS011;60540;51.178;6.738;2022-11-30T09:31:20;30.80;;;14.00;;
72517;SDS011;60540;51.178;6.738;2022-11-30T09:33:49;26.77;;;13.73;;
72517;SDS011;60540;51.178;6.738;2022-11-30T09:36:17;29.13;;;14.23;;
72517;SDS011;60540;51.178;6.738;2022-11-30T09:38:44;32.00;;;14.80;;
72517;SDS011;60540;51.178;6.738;2022-11-30T09:41:24;30.35;;;13.90;;
72517;SDS011;60540;51.178;6.738;2022-11-30T09:50:01;30.65;;;14.02;;
72517;SDS011;60540;51.178;6.738;2022-11-30T09:52:33;30.17;;;14.38;;
72517;SDS011;60540;51.178;6.738;2022-11-30T09:55:01;35.13;;;16.35;;
72517;SDS011;60540;51.178;6.738;2022-11-30T10:00:14;31.25;;;15.07;;
72517;SDS011;60540;51.178;6.738;2022-11-30T10:02:41;31.80;;;14.90;;
72517;SDS011;60540;51.178;6.738;2022-11-30T10:05:14;34.00;;;16.13;;
72517;SDS011;60540;51.178;6.738;2022-11-30T10:10:17;34.30;;;16.23;;
72517;SDS011;60540;51.178;6.738;2022-11-30T10:16:12;38.38;;;15.70;;
72517;SDS011;60540;51.178;6.738;2022-11-30T10:21:40;32.20;;;14.88;;
72517;SDS011;60540;51.178;6.738;2022-11-30T10:26:55;40.83;;;18.60;;
72517;SDS011;60540;51.178;6.738;2022-11-30T10:29:32;36.00;;;16.52;;
72517;SDS011;60540;51.178;6.738;2022-11-30T10:32:03;42.85;;;17.98;;
72517;SDS011;60540;51.178;6.738;2022-11-30T10:34:37;34.47;;;16.60;;
72517;SDS011;60540;51.178;6.738;2022-11-30T10:37:18;40.78;;;16.92;;
72517;SDS011;60540;51.178;6.738;2022-11-30T10:40:02;47.35;;;20.50;;
72517;SDS011;60540;51.178;6.738;2022-11-30T10:42:34;39.83;;;17.50;;
72517;SDS011;60540;51.178;6.738;2022-11-30T10:45:20;41.95;;;18.48;;
72517;SDS011;60540;51.178;6.738;2022-11-30T10:48:05;42.88;;;17.65;;
72517;SDS011;60540;51.178;6.738;2022-11-30T10:50:34;40.97;;;17.88;;
72517;SDS011;60540;51.178;6.738;2022-11-30T10:53:00;37.60;;;16.65;;
72517;SDS011;60540;51.178;6.738;2022-11-30T10:55:30;40.67;;;17.73;;
72517;SDS011;60540;51.178;6.738;2022-11-30T10:58:01;40.53;;;16.17;;
72517;SDS011;60540;51.178;6.738;2022-11-30T11:00:29;38.08;;;16.52;;
72517;SDS011;60540;51.178;6.738;2022-11-30T11:02:55;38.35;;;18.00;;
72517;SDS011;60540;51.178;6.738;2022-11-30T11:07:56;43.60;;;17.63;;
72517;SDS011;60540;51.178;6.738;2022-11-30T11:10:33;46.10;;;19.02;;
72517;SDS011;60540;51.178;6.738;2022-11-30T11:13:01;39.95;;;19.52;;
72517;SDS011;60540;51.178;6.738;2022-11-30T11:15:31;45.47;;;18.80;;
72517;SDS011;60540;51.178;6.738;2022-11-30T11:23:35;37.67;;;17.05;;
72517;SDS011;60540;51.178;6.738;2022-11-30T11:26:02;35.72;;;16.40;;
72517;SDS011;60540;51.178;6.738;2022-11-30T11:28:29;36.85;;;16.38;;
72517;SDS011;60540;51.178;6.738;2022-11-30T11:30:55;37.88;;;15.52;;
72517;SDS011;60540;51.178;6.738;2022-11-30T11:33:22;35.00;;;17.38;;
72517;SDS011;60540;51.178;6.738;2022-11-30T11:35:52;35.55;;;16.10;;
72517;SDS011;60540;51.178;6.738;2022-11-30T11:40:56;43.40;;;17.63;;
72517;SDS011;60540;51.178;6.738;2022-11-30T11:43:25;40.40;;;17.52;;
72517;SDS011;60540;51.178;6.738;2022-11-30T11:46:08;34.33;;;16.35;;
72517;SDS011;60540;51.178;6.738;2022-11-30T11:48:39;37.88;;;16.73;;
72517;SDS011;60540;51.178;6.738;2022-11-30T11:51:09;35.15;;;15.57;;
72517;SDS011;60540;51.178;6.738;2022-11-30T11:53:36;36.15;;;16.42;;
72517;SDS011;60540;51.178;6.738;2022-11-30T11:58:44;37.50;;;17.60;;
72517;SDS011;60540;51.178;6.738;2022-11-30T12:01:35;36.70;;;16.75;;
72517;SDS011;60540;51.178;6.738;2022-11-30T12:06:45;33.22;;;15.20;;
72517;SDS011;60540;51.178;6.738;2022-11-30T12:09:12;32.63;;;15.10;;
72517;SDS011;60540;51.178;6.738;2022-11-30T12:11:47;30.15;;;14.63;;
72517;SDS011;60540;51.178;6.738;2022-11-30T12:14:14;35.30;;;15.15;;
72517;SDS011;60540;51.178;6.738;2022-11-30T12:19:32;31.50;;;15.23;;
72517;SDS011;60540;51.178;6.738;2022-11-30T12:27:10;29.38;;;13.48;;
72517;SDS011;60540;51.178;6.738;2022-11-30T12:32:55;28.52;;;13.13;;
72517;SDS011;60540;51.178;6.738;2022-11-30T12:35:36;28.40;;;13.65;;
72517;SDS011;60540;51.178;6.738;2022-11-30T12:40:42;29.65;;;14.60;;
72517;SDS011;60540;51.178;6.738;2022-11-30T12:43:58;31.60;;;14.35;;
72517;SDS011;60540;51.178;6.738;2022-11-30T12:46:22;34.35;;;15.63;;
72517;SDS011;60540;51.178;6.738;2022-11-30T12:56:59;31.45;;;14.60;;
72517;SDS011;60540;51.178;6.738;2022-11-30T13:02:52;34.75;;;15.23;;
72517;SDS011;60540;51.178;6.738;2022-11-30T13:05:45;32.80;;;15.07;;
72517;SDS011;60540;51.178;6.738;2022-11-30T13:08:33;31.95;;;14.73;;
72517;SDS011;60540;51.178;6.738;2022-11-30T13:11:11;32.90;;;16.15;;
72517;SDS011;60540;51.178;6.738;2022-11-30T13:13:42;35.25;;;16.60;;
72517;SDS011;60540;51.178;6.738;2022-11-30T13:16:17;37.75;;;17.13;;
72517;SDS011;60540;51.178;6.738;2022-11-30T13:18:43;36.97;;;17.17;;
72517;SDS011;60540;51.178;6.738;2022-11-30T13:21:14;44.50;;;19.05;;
72517;SDS011;60540;51.178;6.738;2022-11-30T13:23:54;42.97;;;19.85;;
72517;SDS011;60540;51.178;6.738;2022-11-30T13:26:28;38.47;;;17.23;;
72517;SDS011;60540;51.178;6.738;2022-11-30T13:29:05;40.85;;;17.70;;
72517;SDS011;60540;51.178;6.738;2022-11-30T13:34:21;43.08;;;18.90;;
72517;SDS011;60540;51.178;6.738;2022-11-30T13:36:48;43.20;;;18.35;;
72517;SDS011;60540;51.178;6.738;2022-11-30T13:44:21;39.17;;;17.65;;
72517;SDS011;60540;51.178;6.738;2022-11-30T13:46:55;36.22;;;17.27;;
72517;SDS011;60540;51.178;6.738;2022-11-30T13:51:53;45.22;;;18.42;;
72517;SDS011;60540;51.178;6.738;2022-11-30T13:59:56;43.33;;;20.48;;
72517;SDS011;60540;51.178;6.738;2022-11-30T14:18:01;47.63;;;19.83;;
72517;SDS011;60540;51.178;6.738;2022-11-30T14:20:39;49.17;;;19.63;;
72517;SDS011;60540;51.178;6.738;2022-11-30T14:23:16;45.25;;;18.40;;
72517;SDS011;60540;51.178;6.738;2022-11-30T14:25:48;38.80;;;17.90;;
72517;SDS011;60540;51.178;6.738;2022-11-30T14:28:16;32.30;;;15.00;;
72517;SDS011;60540;51.178;6.738;2022-11-30T14:30:43;33.35;;;14.02;;
72517;SDS011;60540;51.178;6.738;2022-11-30T14:33:11;29.95;;;15.07;;
72517;SDS011;60540;51.178;6.738;2022-11-30T14:35:39;31.00;;;13.98;;
72517;SDS011;60540;51.178;6.738;2022-11-30T14:40:40;31.92;;;13.10;;
72517;SDS011;60540;51.178;6.738;2022-11-30T14:43:15;32.40;;;15.05;;
72517;SDS011;60540;51.178;6.738;2022-11-30T14:48:11;31.15;;;14.82;;
72517;SDS011;60540;51.178;6.738;2022-11-30T14:50:45;33.40;;;15.82;;
72517;SDS011;60540;51.178;6.738;2022-11-30T14:56:18;33.63;;;15.25;;
72517;SDS011;60540;51.178;6.738;2022-11-30T14:58:53;37.33;;;15.50;;
72517;SDS011;60540;51.178;6.738;2022-11-30T15:01:25;32.75;;;15.27;;
72517;SDS011;60540;51.178;6.738;2022-11-30T15:03:54;34.20;;;14.27;;
72517;SDS011;60540;51.178;6.738;2022-11-30T15:06:30;33.95;;;14.38;;
72517;SDS011;60540;51.178;6.738;2022-11-30T15:08:57;33.30;;;17.60;;
72517;SDS011;60540;51.178;6.738;2022-11-30T15:11:24;36.15;;;14.60;;
72517;SDS011;60540;51.178;6.738;2022-11-30T15:13:54;32.97;;;15.27;;
72517;SDS011;60540;51.178;6.738;2022-11-30T15:18:50;30.98;;;14.98;;
72517;SDS011;60540;51.178;6.738;2022-11-30T15:21:21;26.35;;;12.85;;
72517;SDS011;60540;51.178;6.738;2022-11-30T15:23:48;29.30;;;12.57;;
72517;SDS011;60540;51.178;6.738;2022-11-30T15:26:16;26.30;;;12.60;;
72517;SDS011;60540;51.178;6.738;2022-11-30T15:28:48;30.08;;;12.88;;
72517;SDS011;60540;51.178;6.738;2022-11-30T15:31:18;25.38;;;12.68;;
72517;SDS011;60540;51.178;6.738;2022-11-30T15:33:45;25.52;;;11.25;;
72517;SDS011;60540;51.178;6.738;2022-11-30T15:36:11;28.70;;;13.25;;
72517;SDS011;60540;51.178;6.738;2022-11-30T15:38:38;29.92;;;12.93;;
72517;SDS011;60540;51.178;6.738;2022-11-30T15:41:05;24.23;;;11.75;;
72517;SDS011;60540;51.178;6.738;2022-11-30T15:43:35;26.67;;;12.38;;
72517;SDS011;60540;51.178;6.738;2022-11-30T15:46:03;22.48;;;11.05;;
72517;SDS011;60540;51.178;6.738;2022-11-30T15:48:31;22.73;;;11.38;;
72517;SDS011;60540;51.178;6.738;2022-11-30T15:50:59;24.42;;;11.85;;
72517;SDS011;60540;51.178;6.738;2022-11-30T15:56:06;21.30;;;10.00;;
72517;SDS011;60540;51.178;6.738;2022-11-30T15:58:40;24.08;;;10.15;;
72517;SDS011;60540;51.178;6.738;2022-11-30T16:01:14;22.60;;;10.65;;
72517;SDS011;60540;51.178;6.738;2022-11-30T16:04:03;21.65;;;10.18;;
72517;SDS011;60540;51.178;6.738;2022-11-30T16:06:30;22.70;;;11.10;;
72517;SDS011;60540;51.178;6.738;2022-11-30T16:09:01;26.88;;;11.88;;
72517;SDS011;60540;51.178;6.738;2022-11-30T16:11:32;23.13;;;11.27;;
72517;SDS011;60540;51.178;6.738;2022-11-30T16:13:58;23.45;;;11.80;;
72517;SDS011;60540;51.178;6.738;2022-11-30T16:16:28;24.05;;;11.35;;
72517;SDS011;60540;51.178;6.738;2022-11-30T16:18:55;20.38;;;10.88;;
72517;SDS011;60540;51.178;6.738;2022-11-30T16:21:20;22.20;;;10.70;;
72517;SDS011;60540;51.178;6.738;2022-11-30T16:23:46;25.52;;;11.82;;
72517;SDS011;60540;51.178;6.738;2022-11-30T16:26:13;20.45;;;10.40;;
72517;SDS011;60540;51.178;6.738;2022-11-30T16:28:40;20.27;;;10.85;;
72517;SDS011;60540;51.178;6.738;2022-11-30T16:31:05;21.88;;;11.32;;
72517;SDS011;60540;51.178;6.738;2022-11-30T16:33:35;23.75;;;11.15;;
72517;SDS011;60540;51.178;6.738;2022-11-30T16:36:07;21.27;;;10.55;;
72517;SDS011;60540;51.178;6.738;2022-11-30T16:38:37;18.77;;;10.45;;